This demonstration page uses our WeatherBlox Daily Observations layout. Learn more.

Left ArrowRight Arrow

Hourly Observations for July 20, 2015

Temp ( °F °C ) Dew Point ( °F °C ) Humidity (%) Winds ( mph kmh ) Pressure ( in mb ) Visibility ( mi km ) Precip ( " mm )
12:51 am 00:51 Clear 78 25.6 60 15.6 54 54 NW 13 20 29.91 1013 10 16.0934 0.09 2.286
1:51 am 01:51 Clear 77 25 60 15.6 56 56 WNW 10 17 29.91 1013 10 16.0934 N/A
2:51 am 02:51 Clear 76 24.4 59 15 56 56 WNW 8 13 29.9 1013 10 16.0934 N/A
3:51 am 03:51 Clear 75 23.9 59 15 58 58 WNW 9 15 29.9 1013 10 16.0934 N/A
4:51 am 04:51 Clear 74 23.3 60 15.6 62 62 WNW 12 19 29.91 1013 10 16.0934 N/A
5:51 am 05:51 Sunny 73 22.8 60 15.6 64 64 NW 8 13 29.92 1013 10 16.0934 N/A
6:51 am 06:51 Sunny 78 25.6 61 16.1 56 56 WNW 9 15 29.92 1013 10 16.0934 N/A
7:51 am 07:51 Sunny 82 27.8 61 16.1 49 49 WNW 15 24 29.93 1013 10 16.0934 N/A
8:51 am 08:51 Sunny 84 28.9 62 16.7 48 48 WNW 13 20 29.91 1013 10 16.0934 N/A
9:51 am 09:51 Sunny 86 30 61 16.1 43 43 W 8 13 29.91 1013 10 16.0934 N/A
10:51 am 10:51 Sunny 91 32.8 57 13.9 32 32 WNW 14 22 29.9 1012 10 16.0934 N/A
11:51 am 11:51 Sunny 92 33.3 56 13.3 30 30 W 10 17 29.88 1012 10 16.0934 N/A
12:51 pm 12:51 Sunny 94 34.4 57 13.9 29 29 W 14 22 29.85 1011 10 16.0934 N/A
1:51 pm 13:51 Mostly Sunny 97 36.1 56 13.3 25 25 W 18 30 29.82 1010 10 16.0934 N/A
2:51 pm 14:51 Sunny 97 36.1 54 12.2 24 24 W 13 20 29.79 1009 10 16.0934 N/A
3:51 pm 15:51 Sunny 98 36.7 51 10.6 20 20 W 17 28 29.76 1008 10 16.0934 N/A
4:51 pm 16:51 Sunny 97 36.1 51 10.6 21 21 NW 15 24 29.75 1007 10 16.0934 N/A
5:51 pm 17:51 Sunny 95 35 52 11.1 23 23 WNW 16 26 29.74 1007 10 16.0934 N/A
6:51 pm 18:51 Sunny 93 33.9 52 11.1 25 25 WNW 15 24 29.75 1008 10 16.0934 N/A
7:51 pm 19:51 Clear 88 31.1 53 11.7 30 30 WNW 12 19 29.78 1008 10 16.0934 N/A
8:51 pm 20:51 Clear 86 30 53 11.7 32 32 WNW 12 19 29.79 1009 10 16.0934 N/A
9:51 pm 21:51 Clear 84 28.9 54 12.2 36 36 NNW 12 19 29.8 1009 10 16.0934 N/A
10:51 pm 22:51 Clear 83 28.3 54 12.2 37 37 NW 13 20 29.8 1009 10 16.0934 N/A
11:51 pm 23:51 Clear 82 27.8 54 12.2 38 38 NW 13 20 29.79 1009 10 16.0934 N/A

Powered by AerisWeather